createdAt,value
2018-07-14T09:12:21.486Z,4.30
2018-07-14T09:14:50.108Z,3.93
2018-07-14T09:17:19.605Z,4.20
2018-07-14T09:19:49.025Z,3.47
2018-07-14T09:22:17.324Z,3.37
2018-07-14T09:24:47.218Z,3.27
2018-07-14T09:27:15.358Z,3.20
2018-07-14T09:29:44.544Z,2.93
2018-07-14T09:32:15.303Z,3.87
2018-07-14T09:34:44.919Z,3.70
2018-07-14T09:37:13.195Z,3.63
2018-07-14T09:39:42.387Z,3.80
2018-07-14T09:42:11.177Z,4.00
2018-07-14T09:44:40.505Z,3.93
2018-07-14T09:47:11.276Z,4.27
2018-07-14T09:49:40.551Z,4.63
2018-07-14T09:52:08.515Z,5.87
2018-07-14T09:54:38.008Z,5.20
2018-07-14T09:57:06.252Z,6.00
2018-07-14T09:59:35.599Z,5.97
2018-07-14T10:02:05.213Z,5.83
2018-07-14T10:04:34.810Z,5.93
2018-07-14T10:07:04.468Z,4.70
2018-07-14T10:09:33.261Z,5.30
2018-07-14T10:12:03.024Z,5.20
2018-07-14T10:14:38.833Z,5.17
2018-07-14T10:17:06.860Z,5.03
2018-07-14T10:19:35.014Z,5.53
2018-07-14T10:22:02.831Z,4.60
2018-07-14T10:24:30.950Z,5.30
2018-07-14T10:26:58.943Z,5.47
2018-07-14T10:29:27.843Z,4.70
2018-07-14T10:31:55.663Z,4.80
2018-07-14T10:34:23.686Z,4.27
2018-07-14T10:36:51.629Z,4.73
2018-07-14T10:39:20.291Z,4.60
2018-07-14T10:41:48.091Z,5.47
2018-07-14T10:44:16.047Z,4.60
2018-07-14T10:46:43.844Z,5.23
2018-07-14T10:49:11.631Z,5.60
2018-07-14T10:51:39.509Z,4.57
2018-07-14T10:54:07.230Z,4.80
2018-07-14T10:56:35.015Z,4.67
2018-07-14T10:59:03.288Z,5.73
2018-07-14T11:01:31.399Z,5.80
2018-07-14T11:03:59.415Z,5.70
2018-07-14T11:06:27.202Z,5.90
2018-07-14T11:08:55.033Z,4.73
2018-07-14T11:11:22.796Z,5.40
2018-07-14T11:13:50.616Z,4.83
2018-07-14T11:16:18.396Z,4.40
2018-07-14T11:18:46.198Z,5.07
2018-07-14T11:21:14.008Z,4.40
2018-07-14T11:23:41.849Z,4.90
2018-07-14T11:26:09.618Z,4.70
2018-07-14T11:28:37.424Z,4.40
2018-07-14T11:31:05.224Z,4.80
2018-07-14T11:33:33.032Z,4.53
2018-07-14T11:36:00.986Z,4.57
2018-07-14T11:38:29.112Z,5.77
2018-07-14T11:40:58.310Z,4.67
2018-07-14T11:43:26.974Z,5.10
2018-07-14T11:45:54.755Z,4.50
2018-07-14T11:48:22.663Z,4.83
2018-07-14T11:50:50.446Z,5.30
2018-07-14T11:53:18.361Z,4.87
2018-07-14T11:55:46.139Z,5.07
2018-07-14T11:58:14.040Z,4.33
2018-07-14T12:00:44.190Z,5.20
2018-07-14T12:03:12.447Z,4.70
2018-07-14T12:05:40.234Z,4.07
2018-07-14T12:08:08.082Z,5.00
2018-07-14T12:10:35.886Z,4.17
2018-07-14T12:13:03.708Z,3.77
2018-07-14T12:15:31.494Z,4.37
2018-07-14T12:17:59.299Z,4.27
2018-07-14T12:20:27.103Z,4.23
2018-07-14T12:22:54.923Z,5.07
2018-07-14T12:25:22.731Z,4.37
2018-07-14T12:27:50.535Z,4.37
2018-07-14T12:30:18.387Z,4.60
2018-07-14T12:32:46.126Z,4.37
2018-07-14T12:35:13.915Z,4.97
2018-07-14T12:37:41.722Z,4.23
2018-07-14T12:40:09.513Z,3.60
2018-07-14T12:42:37.314Z,3.93
2018-07-14T12:45:05.112Z,3.97
2018-07-14T12:47:39.373Z,4.43
2018-07-14T12:50:07.210Z,3.90
2018-07-14T12:52:35.003Z,3.80
2018-07-14T12:55:02.823Z,4.60
2018-07-14T12:57:30.603Z,4.40
2018-07-14T12:59:58.461Z,4.60
2018-07-14T13:02:26.202Z,4.83
2018-07-14T13:04:54.020Z,5.07
2018-07-14T13:07:21.806Z,4.27
2018-07-14T13:09:49.858Z,3.90
2018-07-14T13:12:18.074Z,4.43
2018-07-14T13:14:45.894Z,4.00
2018-07-14T13:17:13.985Z,3.83
2018-07-14T13:19:41.734Z,4.00
2018-07-14T13:22:09.599Z,4.00
2018-07-14T13:24:37.403Z,4.60
2018-07-14T13:27:05.290Z,3.90
2018-07-14T13:29:33.091Z,4.10
2018-07-14T13:32:00.900Z,3.90
2018-07-14T13:34:28.920Z,4.13
2018-07-14T13:36:56.734Z,4.33
2018-07-14T13:39:24.651Z,4.37
2018-07-14T13:41:52.467Z,4.10
2018-07-14T13:44:20.275Z,4.20
2018-07-14T13:46:48.058Z,4.10
2018-07-14T13:49:15.878Z,4.10
2018-07-14T13:51:43.670Z,4.20
2018-07-14T13:54:11.625Z,3.67
2018-07-14T13:56:39.422Z,4.10
2018-07-14T13:59:07.233Z,4.20
2018-07-14T14:01:35.107Z,4.00
2018-07-14T14:04:02.938Z,3.90
2018-07-14T14:06:30.731Z,4.03
2018-07-14T14:08:58.560Z,4.27
2018-07-14T14:11:26.418Z,3.83
2018-07-14T14:13:54.187Z,3.97
2018-07-14T14:16:21.995Z,4.13
2018-07-14T14:18:49.801Z,3.67
2018-07-14T14:21:17.605Z,3.80
2018-07-14T14:23:45.434Z,3.57
2018-07-14T14:26:13.267Z,4.13
2018-07-14T14:28:41.031Z,4.20
2018-07-14T14:31:08.822Z,4.07
2018-07-14T14:33:36.648Z,3.90
2018-07-14T14:36:04.432Z,4.20
2018-07-14T14:38:32.250Z,4.23
2018-07-14T14:41:00.076Z,4.27
2018-07-14T14:43:27.854Z,4.40
2018-07-14T14:45:55.663Z,4.23
2018-07-14T14:48:23.455Z,4.77
2018-07-14T14:50:51.271Z,3.90
2018-07-14T14:53:19.050Z,4.40
2018-07-14T14:55:46.854Z,4.50
2018-07-14T14:58:14.651Z,4.27
2018-07-14T15:00:42.524Z,3.97
2018-07-14T15:03:10.279Z,4.03
2018-07-14T15:05:38.108Z,4.13
2018-07-14T15:08:05.924Z,3.73
2018-07-14T15:10:33.725Z,4.10
2018-07-14T15:13:01.507Z,3.97
2018-07-14T15:15:29.340Z,3.87
2018-07-14T15:17:57.127Z,4.30
2018-07-14T15:20:24.936Z,4.10
2018-07-14T15:22:52.739Z,3.87
2018-07-14T15:25:20.570Z,4.00
2018-07-14T15:27:49.045Z,4.30
2018-07-14T15:30:16.893Z,4.00
2018-07-14T15:32:44.885Z,4.60
2018-07-14T15:35:12.679Z,4.80
2018-07-14T15:37:40.482Z,4.87
2018-07-14T15:40:08.277Z,4.47
2018-07-14T15:42:36.173Z,4.60
2018-07-14T15:45:04.139Z,4.27
2018-07-14T15:47:31.956Z,4.40
2018-07-14T15:49:59.755Z,4.60
2018-07-14T15:52:27.547Z,4.33
2018-07-14T15:54:55.350Z,4.63
2018-07-14T15:57:23.157Z,4.30
2018-07-14T15:59:50.947Z,4.30
2018-07-14T16:02:18.804Z,4.10
2018-07-14T16:04:46.578Z,4.50
2018-07-14T16:07:14.383Z,4.73
2018-07-14T16:09:42.171Z,4.67
2018-07-14T16:12:09.977Z,5.10
2018-07-14T16:14:37.767Z,4.63
2018-07-14T16:17:05.615Z,4.60
2018-07-14T16:19:33.411Z,3.90
2018-07-14T16:22:01.329Z,4.40
2018-07-14T16:24:29.119Z,4.43
2018-07-14T16:26:56.938Z,3.80
2018-07-14T16:29:24.739Z,4.33
2018-07-14T16:31:52.534Z,4.33
2018-07-14T16:34:20.338Z,4.27
2018-07-14T16:36:48.155Z,4.27
2018-07-14T16:39:15.949Z,4.40
2018-07-14T16:41:43.765Z,3.90
2018-07-14T16:44:11.552Z,4.90
2018-07-14T16:46:39.367Z,4.00
2018-07-14T16:49:07.186Z,4.67
2018-07-14T16:51:35.013Z,4.57
2018-07-14T16:54:02.817Z,4.33
2018-07-14T16:56:30.623Z,4.57
2018-07-14T16:58:58.418Z,3.97
2018-07-14T17:01:26.236Z,4.30
2018-07-14T17:03:54.016Z,4.70
2018-07-14T17:06:21.826Z,4.23
2018-07-14T17:08:49.618Z,4.17
2018-07-14T17:11:17.431Z,4.97
2018-07-14T17:13:45.262Z,4.13
2018-07-14T17:16:13.011Z,4.17
2018-07-14T17:18:40.840Z,5.13
2018-07-14T17:21:08.635Z,4.70
2018-07-14T17:23:36.468Z,5.20
2018-07-14T17:26:04.442Z,4.40
2018-07-14T17:28:32.248Z,3.50
2018-07-14T17:31:00.050Z,3.70
2018-07-14T17:33:27.871Z,4.43
2018-07-14T17:35:55.662Z,4.97
2018-07-14T17:38:23.470Z,4.40
2018-07-14T17:40:51.266Z,4.87
2018-07-14T17:43:19.082Z,4.30
2018-07-14T17:45:46.867Z,4.00
2018-07-14T17:48:14.686Z,4.70
2018-07-14T17:50:42.474Z,5.00
2018-07-14T17:53:10.298Z,4.80
2018-07-14T17:55:38.107Z,4.20
2018-07-14T17:58:06.202Z,4.33
2018-07-14T18:00:34.080Z,4.90
2018-07-14T18:03:01.896Z,4.90
2018-07-14T18:05:29.686Z,4.80
2018-07-14T18:07:57.531Z,4.60
2018-07-14T18:10:25.326Z,4.83
2018-07-14T18:12:53.222Z,4.67
2018-07-14T18:15:21.011Z,4.70
2018-07-14T18:17:49.231Z,4.00
2018-07-14T18:20:17.014Z,3.80
2018-07-14T18:22:46.032Z,4.87
2018-07-14T18:25:13.946Z,4.30
2018-07-14T18:27:41.737Z,3.80
2018-07-14T18:30:09.532Z,3.60
2018-07-14T18:32:38.614Z,3.13
2018-07-14T18:35:09.025Z,3.13
2018-07-14T18:37:37.361Z,3.37
2018-07-14T18:40:05.425Z,3.20
2018-07-14T18:42:33.245Z,3.20
2018-07-14T18:45:01.030Z,3.20
2018-07-14T18:47:28.877Z,3.97
2018-07-14T18:49:57.430Z,3.50
2018-07-14T18:52:25.477Z,6.73
2018-07-14T18:54:53.108Z,7.40
2018-07-14T18:57:20.911Z,5.13
2018-07-14T18:59:48.751Z,3.93
2018-07-14T19:02:16.582Z,3.67
2018-07-14T19:04:44.407Z,3.50
2018-07-14T19:07:12.204Z,3.50
2018-07-14T19:09:40.005Z,3.63
2018-07-14T19:12:07.791Z,3.83
2018-07-14T19:14:35.603Z,4.17
2018-07-14T19:17:03.386Z,4.13
2018-07-14T19:19:31.207Z,4.10
2018-07-14T19:21:59.034Z,4.90
2018-07-14T19:24:26.843Z,4.70
2018-07-14T19:26:54.639Z,4.77
2018-07-14T19:29:22.446Z,5.10
2018-07-14T19:31:50.256Z,4.50
2018-07-14T19:34:18.062Z,5.00
2018-07-14T19:36:45.896Z,5.43
2018-07-14T19:39:13.710Z,5.37
2018-07-14T19:41:41.482Z,5.50
2018-07-14T19:44:09.295Z,5.60
2018-07-14T19:46:37.102Z,5.10
2018-07-14T19:49:04.905Z,6.40
2018-07-14T19:51:32.702Z,4.80
2018-07-14T19:54:00.519Z,3.80
2018-07-14T19:56:28.322Z,4.80
2018-07-14T19:58:56.138Z,5.53
2018-07-14T20:01:23.937Z,4.90
2018-07-14T20:03:51.734Z,5.60
2018-07-14T20:06:19.825Z,5.90
2018-07-14T20:08:47.654Z,5.40
2018-07-14T20:11:15.510Z,5.20
2018-07-14T20:13:43.317Z,4.63
2018-07-14T20:16:11.131Z,5.73
2018-07-14T20:18:39.367Z,5.73
2018-07-14T20:21:07.278Z,5.53
2018-07-14T20:23:35.350Z,5.10
2018-07-14T20:26:03.354Z,5.73
2018-07-14T20:28:31.204Z,4.80
2018-07-14T20:30:59.022Z,5.30
2018-07-14T20:33:26.814Z,5.07
2018-07-14T20:35:54.722Z,5.37
2018-07-14T20:38:22.546Z,5.60
2018-07-14T20:40:50.567Z,5.90
2018-07-14T20:43:18.363Z,5.30
2018-07-14T20:45:46.194Z,5.40
2018-07-14T20:48:13.974Z,6.00
2018-07-14T20:50:41.834Z,5.77
2018-07-14T20:53:09.627Z,5.70
2018-07-14T20:55:37.551Z,5.97
2018-07-14T20:58:05.388Z,6.17
2018-07-14T21:00:33.213Z,5.53
2018-07-14T21:03:00.999Z,5.23
2018-07-14T21:05:28.818Z,6.03
2018-07-14T21:07:56.613Z,6.33
2018-07-14T21:10:24.443Z,6.43
2018-07-14T21:12:52.239Z,6.70
2018-07-14T21:15:20.073Z,6.57
2018-07-14T21:17:47.881Z,6.60
2018-07-14T21:20:15.688Z,6.87
2018-07-14T21:22:43.487Z,6.40
2018-07-14T21:25:11.312Z,6.73
2018-07-14T21:27:39.091Z,7.10
2018-07-14T21:30:06.899Z,6.97
2018-07-14T21:32:34.691Z,7.43
2018-07-14T21:35:02.499Z,8.00
2018-07-14T21:37:30.344Z,6.97
2018-07-14T21:39:58.162Z,7.33
2018-07-14T21:42:26.917Z,8.30
2018-07-14T21:44:54.791Z,7.40
2018-07-14T21:47:22.586Z,8.60
2018-07-14T21:49:50.415Z,6.60
2018-07-14T21:52:18.223Z,7.40
2018-07-14T21:54:46.026Z,7.60
2018-07-14T21:57:13.850Z,8.37
2018-07-14T21:59:41.657Z,8.03
2018-07-14T22:02:09.475Z,7.57
2018-07-14T22:04:37.279Z,9.13
2018-07-14T22:07:05.098Z,9.07
2018-07-14T22:09:32.908Z,8.40
2018-07-14T22:12:00.997Z,7.83
2018-07-14T22:14:28.757Z,8.30
2018-07-14T22:16:56.591Z,8.73
2018-07-14T22:19:24.394Z,8.97
2018-07-14T22:21:52.739Z,9.80
2018-07-14T22:24:20.530Z,8.37
2018-07-14T22:26:48.431Z,9.33
2018-07-14T22:29:16.304Z,9.10
2018-07-14T22:31:44.060Z,7.73
2018-07-14T22:34:11.861Z,8.60
2018-07-14T22:36:39.686Z,8.80
2018-07-14T22:39:07.578Z,8.20
2018-07-14T22:41:35.455Z,8.30
2018-07-14T22:44:03.522Z,9.50
2018-07-14T22:46:31.330Z,8.93
2018-07-14T22:48:59.126Z,9.17
2018-07-14T22:51:26.959Z,9.33
2018-07-14T22:53:54.763Z,11.10
2018-07-14T22:56:22.585Z,8.27
2018-07-14T22:58:50.376Z,8.50
2018-07-14T23:01:18.202Z,8.80
2018-07-14T23:03:46.012Z,9.03
2018-07-14T23:06:13.850Z,8.87
2018-07-14T23:08:41.643Z,9.73
2018-07-14T23:11:09.464Z,8.30
2018-07-14T23:13:37.263Z,9.17
2018-07-14T23:16:05.101Z,9.30
2018-07-14T23:18:32.895Z,9.00
2018-07-14T23:21:00.731Z,9.67
2018-07-14T23:23:28.547Z,8.97
2018-07-14T23:25:56.367Z,10.13
2018-07-14T23:28:24.160Z,8.80
2018-07-14T23:30:51.986Z,10.07
2018-07-14T23:33:19.782Z,9.97
2018-07-14T23:35:47.628Z,9.60
2018-07-14T23:38:15.424Z,10.07
2018-07-14T23:40:43.224Z,9.53
2018-07-14T23:43:11.041Z,9.40
2018-07-14T23:45:38.844Z,9.87
2018-07-14T23:48:06.674Z,9.57
2018-07-14T23:50:34.478Z,9.30
2018-07-14T23:53:02.299Z,10.07
2018-07-14T23:55:30.091Z,9.20
2018-07-14T23:57:57.918Z,10.43
